Time;durP1;ratioP1;P1;durP2;ratioP2;P2;SDS_P1;SDS_P2;PMS_P1;PMS_P2;Temp;Humidity;BMP_temperature;BMP_pressure;BME280_temperature;BME280_humidity;BME280_pressure;Samples;Min_cycle;Max_cycle;Signal;HPM_P1;HPM_P2
2021/05/28 00:02:01;;;;;;;7.45;5.28;;;;;;;14.71;100.00;99288.98;1756700;79;20970;-85
2021/05/28 00:04:28;;;;;;;7.80;4.92;;;;;;;14.70;100.00;99281.05;1741674;80;20994;-85
2021/05/28 00:06:54;;;;;;;7.22;4.90;;;;;;;14.71;100.00;99286.80;1750298;80;21571;-86
2021/05/28 00:09:21;;;;;;;11.93;5.08;;;;;;;14.71;100.00;99285.41;1764994;80;21045;-86
2021/05/28 00:11:47;;;;;;;9.73;5.17;;;;;;;14.70;100.00;99291.52;1761750;80;21077;-79
2021/05/28 00:14:16;;;;;;;7.15;5.22;;;;;;;14.70;100.00;99285.19;1778087;78;21472;-79
2021/05/28 00:16:42;;;;;;;9.25;5.25;;;;;;;14.68;100.00;99281.39;1754025;80;21009;-81
2021/05/28 00:19:09;;;;;;;6.90;5.08;;;;;;;14.67;100.00;99290.03;1753815;80;21026;-81
2021/05/28 00:21:35;;;;;;;6.65;4.87;;;;;;;14.64;100.00;99286.00;1745026;80;20988;-81
2021/05/28 00:24:03;;;;;;;8.10;4.37;;;;;;;14.61;100.00;99285.89;1735362;81;20986;-85
2021/05/28 00:26:30;;;;;;;9.13;4.90;;;;;;;14.57;100.00;99280.84;1739373;81;20874;-83
2021/05/28 00:28:58;;;;;;;10.93;5.30;;;;;;;14.54;100.00;99280.95;1736857;81;20934;-79
2021/05/28 00:31:24;;;;;;;9.60;4.83;;;;;;;14.54;100.00;99286.48;1705711;82;20970;-84
2021/05/28 00:33:52;;;;;;;9.10;5.53;;;;;;;14.52;100.00;99281.31;1747446;80;21011;-80
2021/05/28 00:36:18;;;;;;;9.40;5.10;;;;;;;14.52;100.00;99283.27;1759023;80;20993;-80
2021/05/28 00:38:45;;;;;;;7.85;4.83;;;;;;;14.50;100.00;99280.84;1779197;80;21035;-85
2021/05/28 00:41:12;;;;;;;7.50;5.05;;;;;;;14.49;100.00;99280.62;1759361;80;20908;-83
2021/05/28 00:43:39;;;;;;;9.83;5.10;;;;;;;14.47;100.00;99276.02;1761851;79;20998;-83
2021/05/28 00:46:05;;;;;;;12.43;5.45;;;;;;;14.46;100.00;99270.84;1745474;80;20983;-81
2021/05/28 00:48:31;;;;;;;7.92;5.08;;;;;;;14.46;100.00;99277.17;1777826;80;20986;-83
2021/05/28 00:50:58;;;;;;;15.53;5.20;;;;;;;14.45;100.00;99268.66;1743226;81;20922;-82
2021/05/28 00:53:24;;;;;;;9.25;4.78;;;;;;;14.43;100.00;99267.42;1696463;83;21050;-84
2021/05/28 00:55:51;;;;;;;8.03;5.00;;;;;;;14.42;100.00;99269.39;1755109;79;21560;-86
2021/05/28 00:58:18;;;;;;;8.98;5.00;;;;;;;14.41;100.00;99265.02;1748274;80;21877;-86
2021/05/28 01:00:44;;;;;;;11.33;4.95;;;;;;;14.38;100.00;99267.06;1767317;80;20890;-85
2021/05/28 01:03:11;;;;;;;8.05;5.08;;;;;;;14.37;100.00;99265.45;1739869;81;21014;-88
2021/05/28 01:05:37;;;;;;;8.85;5.40;;;;;;;14.36;100.00;99258.31;1737479;81;21026;-86
2021/05/28 01:08:05;;;;;;;5.92;5.25;;;;;;;14.36;100.00;99260.28;1740299;81;20903;-85
2021/05/28 01:10:32;;;;;;;6.12;5.47;;;;;;;14.33;100.00;99252.11;1766200;80;21411;-85
2021/05/28 01:13:07;;;;;;;6.92;5.00;;;;;;;14.31;100.00;99254.98;1775764;80;20982;-85
2021/05/28 01:15:35;;;;;;;7.58;5.42;;;;;;;14.30;100.00;99247.28;1771747;79;21036;-85
2021/05/28 01:18:03;;;;;;;7.97;6.08;;;;;;;14.27;100.00;99252.12;1739268;81;21727;-85
2021/05/28 01:20:31;;;;;;;8.23;6.00;;;;;;;14.25;100.00;99254.42;1707600;83;20993;-85
2021/05/28 01:22:58;;;;;;;7.15;6.20;;;;;;;14.23;100.00;99251.20;1669756;82;21048;-82
2021/05/28 01:25:26;;;;;;;7.58;6.17;;;;;;;14.24;100.00;99256.15;1697948;83;20910;-84
2021/05/28 01:27:52;;;;;;;8.38;5.85;;;;;;;14.22;100.00;99256.49;1701996;83;21077;-85
2021/05/28 01:30:24;;;;;;;9.45;6.05;;;;;;;14.21;100.00;99264.55;1690645;83;21050;-84
2021/05/28 01:32:51;;;;;;;7.70;5.83;;;;;;;14.20;100.00;99265.12;1683431;83;21051;-83
2021/05/28 01:35:17;;;;;;;13.98;5.25;;;;;;;14.21;100.00;99265.35;1667788;83;21040;-83
2021/05/28 01:37:44;;;;;;;8.90;5.37;;;;;;;14.22;100.00;99263.39;1726731;81;21571;-84
2021/05/28 01:40:12;;;;;;;6.40;4.85;;;;;;;14.20;100.00;99260.17;1662177;84;20978;-86
2021/05/28 01:42:38;;;;;;;6.87;5.30;;;;;;;14.18;100.00;99263.86;1723780;82;21281;-82
2021/05/28 01:45:06;;;;;;;7.47;5.15;;;;;;;14.17;100.00;99256.73;1733539;81;20971;-80
2021/05/28 01:47:33;;;;;;;11.50;5.58;;;;;;;14.14;100.00;99254.08;1736464;81;21717;-81
2021/05/28 01:49:59;;;;;;;5.80;5.30;;;;;;;14.12;100.00;99254.20;1724431;82;21108;-81
2021/05/28 01:52:27;;;;;;;11.80;5.75;;;;;;;14.10;100.00;99250.98;1735778;81;20978;-82
2021/05/28 01:54:53;;;;;;;8.15;5.40;;;;;;;14.08;100.00;99246.37;1734477;81;21535;-82
2021/05/28 01:57:20;;;;;;;8.45;5.62;;;;;;;14.07;100.00;99244.77;1746518;81;21003;-84
2021/05/28 01:59:48;;;;;;;9.15;5.58;;;;;;;14.05;100.00;99247.88;1710990;83;21491;-83
2021/05/28 02:02:15;;;;;;;12.80;5.78;;;;;;;14.05;100.00;99245.69;1748321;81;21026;-89
2021/05/28 02:04:42;;;;;;;9.23;5.55;;;;;;;14.06;100.00;99250.06;1696646;83;20997;-82
2021/05/28 02:07:10;;;;;;;7.95;5.25;;;;;;;14.07;100.00;99249.72;1756883;81;21018;-81
2021/05/28 02:09:37;;;;;;;8.33;6.12;;;;;;;14.07;100.00;99251.67;1747760;81;21018;-82
2021/05/28 02:12:07;;;;;;;7.33;5.90;;;;;;;14.06;100.00;99243.16;1741033;81;20894;-82
2021/05/28 02:14:35;;;;;;;7.87;5.97;;;;;;;14.07;100.00;99248.91;1702062;83;21038;-82
2021/05/28 02:17:02;;;;;;;8.10;5.37;;;;;;;14.06;100.00;99240.40;1753772;80;21533;-82
2021/05/28 02:19:30;;;;;;;7.75;5.35;;;;;;;14.07;100.00;99243.39;1753476;80;21038;-84
2021/05/28 02:21:56;;;;;;;9.85;6.08;;;;;;;14.07;100.00;99237.88;1761569;80;21492;-81
2021/05/28 02:24:23;;;;;;;10.85;5.37;;;;;;;14.06;100.00;99240.40;1759261;79;21033;-84
2021/05/28 02:26:51;;;;;;;9.20;5.53;;;;;;;14.06;100.00;99236.27;1689795;83;20922;-82
2021/05/28 02:29:17;;;;;;;10.05;5.95;;;;;;;14.07;100.00;99235.92;1754350;81;21068;-82
2021/05/28 02:31:44;;;;;;;9.80;5.58;;;;;;;14.08;100.00;99241.66;1754276;80;20949;-82
2021/05/28 02:34:11;;;;;;;7.83;5.50;;;;;;;14.10;100.00;99237.18;1707799;83;21030;-82
2021/05/28 02:36:38;;;;;;;7.75;5.50;;;;;;;14.09;100.00;99240.52;1754650;80;21054;-77
2021/05/28 02:39:06;;;;;;;9.88;5.22;;;;;;;14.10;100.00;99237.18;1741047;80;21123;-82
2021/05/28 02:41:33;;;;;;;5.53;4.95;;;;;;;14.11;100.00;99239.59;1753180;80;20979;-82
2021/05/28 02:44:01;;;;;;;6.33;5.72;;;;;;;14.11;100.00;99231.31;1754175;80;21025;-82
2021/05/28 02:46:29;;;;;;;6.37;4.95;;;;;;;14.13;100.00;99232.34;1710247;83;20954;-82
2021/05/28 02:48:57;;;;;;;7.60;6.08;;;;;;;14.14;100.00;99226.48;1750593;81;21906;-80
2021/05/28 02:51:23;;;;;;;7.97;5.33;;;;;;;14.16;100.00;99225.55;1765645;80;21008;-82
2021/05/28 02:53:49;;;;;;;7.20;6.05;;;;;;;14.18;100.00;99226.59;1686744;82;20990;-81
2021/05/28 02:56:16;;;;;;;6.72;5.70;;;;;;;14.21;100.00;99217.61;1757836;80;21723;-79
2021/05/28 02:58:42;;;;;;;7.62;5.50;;;;;;;14.24;100.00;99220.26;1757118;80;21009;-86
2021/05/28 03:01:08;;;;;;;9.18;5.25;;;;;;;14.26;100.00;99225.66;1693805;83;21712;-88
2021/05/28 03:03:35;;;;;;;8.50;5.15;;;;;;;14.28;100.00;99219.22;1742966;81;20935;-86
2021/05/28 03:06:03;;;;;;;11.43;5.42;;;;;;;14.29;100.00;99213.11;1747631;81;20977;-82
2021/05/28 03:08:30;;;;;;;6.15;5.55;;;;;;;14.34;100.00;99222.54;1742297;81;20926;-82
2021/05/28 03:10:57;;;;;;;9.30;5.50;;;;;;;14.38;100.00;99220.69;1751869;80;21093;-85
2021/05/28 03:13:24;;;;;;;6.75;5.90;;;;;;;14.43;100.00;99224.63;1761956;80;21491;-85
2021/05/28 03:15:52;;;;;;;11.50;5.60;;;;;;;14.48;100.00;99219.63;1769140;80;21010;-84
2021/05/28 03:18:22;;;;;;;7.75;5.47;;;;;;;14.52;100.00;99222.50;1768870;80;21124;-83
2021/05/28 03:21:18;;;;;;;7.50;5.08;;;;;;;14.57;100.00;99224.22;1759579;80;21056;-86
2021/05/28 03:23:26;;;;;;;9.53;5.40;;;;;;;14.60;100.00;99229.04;1750979;80;22147;-83
2021/05/28 03:25:53;;;;;;;7.70;4.80;;;;;;;14.63;100.00;99231.10;1711490;83;21666;-81
2021/05/28 03:28:19;;;;;;;6.45;5.10;;;;;;;14.67;100.00;99232.81;1756760;80;21069;-82
2021/05/28 03:30:46;;;;;;;7.47;5.62;;;;;;;14.68;100.00;99233.05;1695591;82;21063;-84
2021/05/28 03:33:12;;;;;;;8.03;5.50;;;;;;;14.70;100.00;99238.22;1683745;83;20981;-86
2021/05/28 03:35:39;;;;;;;10.05;6.25;;;;;;;14.72;100.00;99240.05;1682986;84;21077;-78
2021/05/28 03:38:07;;;;;;;9.05;6.08;;;;;;;14.74;100.00;99236.36;1679548;84;21516;-84
2021/05/28 03:40:33;;;;;;;7.62;5.58;;;;;;;14.76;100.00;99235.44;1675597;84;21573;-85
2021/05/28 03:43:00;;;;;;;10.85;5.50;;;;;;;14.77;100.00;99232.32;1675296;84;21038;-86
2021/05/28 03:45:27;;;;;;;9.98;5.90;;;;;;;14.78;100.00;99231.74;1679774;84;20975;-85
2021/05/28 03:47:53;;;;;;;8.38;5.60;;;;;;;14.79;100.00;99236.11;1676861;84;20912;-82
2021/05/28 03:50:20;;;;;;;8.73;5.15;;;;;;;14.80;100.00;99238.53;1688147;84;21102;-84
2021/05/28 03:52:47;;;;;;;5.80;5.25;;;;;;;14.82;100.00;99240.94;1729073;82;20989;-88
2021/05/28 03:55:15;;;;;;;6.05;5.15;;;;;;;14.81;100.00;99247.05;1734452;81;21512;-83
2021/05/28 03:57:41;;;;;;;6.47;5.22;;;;;;;14.82;100.00;99240.36;1735913;81;21045;-83
2021/05/28 04:00:09;;;;;;;5.90;5.15;;;;;;;14.85;100.00;99239.66;1728609;81;20990;-81
2021/05/28 04:02:42;;;;;;;9.63;5.20;;;;;;;14.90;100.00;99238.61;1719982;82;22013;-80
2021/05/28 04:05:11;;;;;;;7.62;5.33;;;;;;;14.92;100.00;99237.68;1722660;82;20904;-83
2021/05/28 04:07:38;;;;;;;7.75;5.35;;;;;;;14.95;100.00;99238.36;1734528;81;21005;-85
2021/05/28 04:10:05;;;;;;;11.25;5.12;;;;;;;14.99;100.00;99240.64;1732996;81;21030;-84
2021/05/28 04:12:32;;;;;;;7.50;5.20;;;;;;;15.02;100.00;99234.98;1732906;80;21623;-80
2021/05/28 04:14:58;;;;;;;5.87;5.08;;;;;;;15.05;100.00;99239.20;1733692;80;21579;-84
2021/05/28 04:17:26;;;;;;;10.18;5.53;;;;;;;15.09;100.00;99229.63;1741110;81;21029;-80
2021/05/28 04:19:54;;;;;;;7.53;5.55;;;;;;;15.15;100.00;99242.04;1726763;81;21987;-79
2021/05/28 04:22:21;;;;;;;8.28;5.35;;;;;;;15.20;100.00;99241.78;1725822;82;21021;-79
2021/05/28 04:24:47;;;;;;;7.75;5.20;;;;;;;15.23;100.00;99245.23;1741635;80;21021;-78
2021/05/28 04:27:14;;;;;;;6.15;5.33;;;;;;;15.24;100.00;99245.45;1728544;81;21115;-78
2021/05/28 04:29:40;;;;;;;6.22;4.95;;;;;;;15.26;100.00;99251.43;1737573;80;21579;-78
2021/05/28 04:32:06;;;;;;;7.05;4.28;;;;;;;15.30;100.00;99247.37;1743890;81;20860;-80
2021/05/28 04:34:34;;;;;;;7.60;4.45;;;;;;;15.32;100.00;99245.87;1724626;82;20982;-79
2021/05/28 04:37:03;;;;;;;5.75;4.35;;;;;;;15.32;100.00;99242.30;1726680;82;20994;-79
2021/05/28 04:39:30;;;;;;;6.97;4.72;;;;;;;15.36;100.00;99243.20;1730539;81;21082;-78
2021/05/28 04:41:56;;;;;;;8.13;5.00;;;;;;;15.41;100.00;99245.70;1732710;81;21655;-79
2021/05/28 04:44:23;;;;;;;7.40;5.05;;;;;;;15.47;100.00;99244.28;1744389;78;21149;-79
2021/05/28 04:46:50;;;;;;;7.30;4.87;;;;;;;15.58;100.00;99246.78;1749657;78;21096;-76
2021/05/28 04:49:17;;;;;;;6.83;5.03;;;;;;;15.68;100.00;99246.80;1741943;81;21014;-76
2021/05/28 04:51:43;;;;;;;6.85;5.10;;;;;;;15.76;100.00;99246.63;1749522;80;20990;-79
2021/05/28 04:54:09;;;;;;;6.50;4.22;;;;;;;15.85;100.00;99243.67;1743432;80;20993;-79
2021/05/28 04:56:36;;;;;;;4.37;3.60;;;;;;;15.92;100.00;99239.70;1718444;82;21494;-79
2021/05/28 04:59:03;;;;;;;7.17;4.47;;;;;;;15.97;100.00;99236.66;1740636;81;21267;-76
2021/05/28 05:01:30;;;;;;;5.65;4.30;;;;;;;16.03;100.00;99234.42;1753763;80;21604;-79
2021/05/28 05:03:57;;;;;;;8.25;4.60;;;;;;;16.07;100.00;99232.55;1760196;80;21477;-77
2021/05/28 05:06:23;;;;;;;7.30;4.80;;;;;;;16.13;100.00;99234.67;1742221;80;20988;-80
2021/05/28 05:08:51;;;;;;;5.78;4.05;;;;;;;16.25;100.00;99228.19;1726778;81;21022;-87
2021/05/28 05:11:18;;;;;;;5.67;4.42;;;;;;;16.44;100.00;99231.00;1739139;80;21113;-90
2021/05/28 05:13:44;;;;;;;6.35;4.22;;;;;;;16.61;100.00;99226.21;1735199;81;20911;-84
2021/05/28 05:16:11;;;;;;;5.60;4.03;;;;;;;16.71;100.00;99225.66;1737569;80;21960;-89
2021/05/28 05:18:37;;;;;;;4.30;3.90;;;;;;;16.78;100.00;99228.55;1742500;81;20888;-89
2021/05/28 05:21:05;;;;;;;5.70;3.50;;;;;;;16.80;100.00;99227.61;1748384;81;20927;-89
2021/05/28 05:23:32;;;;;;;6.05;3.90;;;;;;;16.81;100.00;99223.09;1744231;81;20994;-90
2021/05/28 05:25:59;;;;;;;5.85;3.83;;;;;;;16.88;100.00;99228.56;1745526;81;22131;-90
2021/05/28 05:28:25;;;;;;;4.50;3.60;;;;;;;16.95;99.54;99230.89;1747452;81;21404;-77
2021/05/28 05:30:52;;;;;;;5.62;3.90;;;;;;;17.06;99.83;99226.36;1737143;80;21016;-81
2021/05/28 05:33:19;;;;;;;4.08;3.62;;;;;;;17.25;100.00;99226.13;1738145;79;21023;-80
2021/05/28 05:35:45;;;;;;;5.00;3.75;;;;;;;17.38;97.83;99224.16;1740944;79;21509;-78
2021/05/28 05:38:12;;;;;;;11.55;10.50;;;;;;;17.46;94.62;99227.88;1742606;80;21011;-76
2021/05/28 05:40:38;;;;;;;9.00;8.10;;;;;;;17.57;94.59;99221.13;1738231;80;21095;-80
2021/05/28 05:43:05;;;;;;;8.60;5.95;;;;;;;17.71;93.04;99219.42;1726030;80;20941;-78
2021/05/28 05:45:32;;;;;;;7.28;6.28;;;;;;;17.88;91.80;99215.93;1746850;80;21061;-72
2021/05/28 05:47:58;;;;;;;8.60;5.70;;;;;;;18.02;89.72;99216.92;1728477;81;20938;-74
2021/05/28 05:50:25;;;;;;;4.62;3.17;;;;;;;18.16;88.23;99214.95;1746217;80;21108;-72
2021/05/28 05:52:53;;;;;;;3.22;2.05;;;;;;;18.32;86.66;99215.59;1771081;79;21706;-70
2021/05/28 05:55:22;;;;;;;5.78;2.83;;;;;;;18.41;81.25;99218.89;1678780;83;21058;-74
2021/05/28 05:57:49;;;;;;;4.60;4.25;;;;;;;18.51;81.02;99224.36;1750709;81;21157;-69
2021/05/28 06:00:16;;;;;;;5.83;3.60;;;;;;;18.62;81.53;99228.70;1750342;81;20931;-66
2021/05/28 06:02:42;;;;;;;6.80;3.40;;;;;;;18.70;80.24;99229.81;1700637;83;21057;-67
2021/05/28 06:05:10;;;;;;;5.62;3.08;;;;;;;18.81;81.09;99229.95;1772876;80;21078;-67
2021/05/28 06:07:37;;;;;;;3.67;2.50;;;;;;;18.94;81.24;99227.14;1735952;81;21497;-66
2021/05/28 06:10:05;;;;;;;6.70;2.85;;;;;;;19.10;80.47;99220.73;1739099;80;20949;-72
2021/05/28 06:12:32;;;;;;;3.95;2.47;;;;;;;19.20;78.18;99226.80;1736928;80;21065;-74
2021/05/28 06:14:58;;;;;;;4.70;2.77;;;;;;;19.31;76.02;99223.55;1728200;81;21013;-77
2021/05/28 06:17:25;;;;;;;3.70;2.58;;;;;;;19.45;75.37;99224.50;1700582;82;21069;-71
2021/05/28 06:19:52;;;;;;;4.60;2.72;;;;;;;19.61;73.81;99227.06;1723483;80;21040;-73
2021/05/28 06:22:21;;;;;;;6.78;2.40;;;;;;;19.73;73.40;99226.75;1751692;81;20914;-68
2021/05/28 06:24:49;;;;;;;4.90;2.90;;;;;;;19.83;73.36;99228.62;1691788;82;21097;-68
2021/05/28 06:27:15;;;;;;;4.12;2.75;;;;;;;19.83;72.81;99223.84;1742922;81;20929;-78
2021/05/28 06:29:42;;;;;;;12.63;3.02;;;;;;;19.82;72.21;99220.86;1726342;81;21017;-74
2021/05/28 06:32:08;;;;;;;12.40;3.00;;;;;;;19.85;71.43;99219.28;1721381;81;21656;-74
2021/05/28 06:34:35;;;;;;;7.90;2.80;;;;;;;19.84;70.50;99214.90;1732490;81;21476;-73
2021/05/28 06:37:01;;;;;;;7.85;3.20;;;;;;;19.78;69.86;99222.22;1746106;81;21014;-72
2021/05/28 06:39:27;;;;;;;6.95;3.00;;;;;;;19.78;70.61;99220.02;1750213;81;20888;-72
2021/05/28 06:41:54;;;;;;;14.05;3.45;;;;;;;19.85;69.98;99227.64;1723010;82;21064;-74
2021/05/28 06:44:26;;;;;;;31.80;5.80;;;;;;;19.89;71.87;99220.11;1720022;82;21663;-75
2021/05/28 06:46:53;;;;;;;11.35;4.22;;;;;;;19.99;71.51;99216.61;1715236;82;21159;-74
2021/05/28 06:49:20;;;;;;;8.03;3.67;;;;;;;20.11;71.24;99218.50;1714960;82;21079;-74
2021/05/28 06:51:46;;;;;;;7.25;3.27;;;;;;;20.20;71.86;99209.00;1727158;82;20899;-74
2021/05/28 06:54:14;;;;;;;5.20;3.10;;;;;;;20.26;72.89;99209.61;1714920;82;21555;-74
2021/05/28 06:56:42;;;;;;;5.47;3.20;;;;;;;20.37;74.24;99212.47;1742455;80;20933;-76
2021/05/28 06:59:10;;;;;;;9.23;3.72;;;;;;;20.49;73.80;99209.38;1756414;79;21622;-76
2021/05/28 07:01:36;;;;;;;9.65;3.90;;;;;;;20.58;73.27;99204.84;1759179;79;20996;-81
2021/05/28 07:04:04;;;;;;;11.18;4.80;;;;;;;20.65;72.27;99208.47;1760145;79;20978;-83
2021/05/28 07:06:30;;;;;;;15.43;3.90;;;;;;;20.72;72.67;99207.70;1769457;79;21063;-77
2021/05/28 07:08:58;;;;;;;11.78;5.45;;;;;;;20.75;70.95;99206.92;1737854;81;21599;-78
2021/05/28 07:11:24;;;;;;;8.10;5.25;;;;;;;20.76;72.29;99206.53;1748984;79;20867;-82
2021/05/28 07:13:51;;;;;;;13.20;5.60;;;;;;;20.87;72.22;99204.35;1762562;79;21009;-81
2021/05/28 07:16:18;;;;;;;10.63;4.70;;;;;;;20.96;71.71;99200.60;1750389;80;21025;-81
2021/05/28 07:18:45;;;;;;;9.25;3.95;;;;;;;20.99;71.51;99205.39;1744655;80;21708;-82
2021/05/28 07:21:13;;;;;;;6.37;4.37;;;;;;;20.98;69.91;99207.98;1729280;80;21121;-82
2021/05/28 07:23:40;;;;;;;12.13;5.35;;;;;;;20.87;70.05;99209.94;1767467;79;21049;-82
2021/05/28 07:26:06;;;;;;;13.48;5.95;;;;;;;20.80;70.87;99204.35;1760991;80;21021;-81
2021/05/28 07:28:33;;;;;;;10.25;5.25;;;;;;;20.76;72.11;99205.73;1749709;79;21607;-80
2021/05/28 07:30:59;;;;;;;8.88;4.70;;;;;;;20.76;72.58;99199.56;1725276;80;21142;-81
2021/05/28 07:33:26;;;;;;;11.70;5.30;;;;;;;20.83;71.63;99202.14;1684887;81;20999;-81
2021/05/28 07:35:53;;;;;;;5.70;4.58;;;;;;;20.89;71.23;99196.39;1700572;82;20982;-81
2021/05/28 07:38:25;;;;;;;6.22;4.40;;;;;;;20.98;70.80;99197.62;1736232;82;21630;-80
2021/05/28 07:40:52;;;;;;;11.20;5.03;;;;;;;21.10;69.41;99195.86;1718444;81;20943;-82
2021/05/28 07:43:18;;;;;;;5.47;4.65;;;;;;;21.13;67.84;99190.09;1730282;82;21022;-80
2021/05/28 07:45:51;;;;;;;8.28;5.20;;;;;;;21.15;68.64;99185.52;1716142;81;21053;-84
2021/05/28 07:48:19;;;;;;;7.67;5.20;;;;;;;21.25;68.87;99189.75;1739618;82;21571;-84
2021/05/28 07:50:45;;;;;;;9.68;5.37;;;;;;;21.39;69.95;99186.95;1741354;81;21036;-82
2021/05/28 07:53:24;;;;;;;15.08;5.15;;;;;;;21.57;69.91;99180.00;1738996;82;21104;-84
2021/05/28 07:55:51;;;;;;;11.90;4.97;;;;;;;21.76;68.47;99184.39;1730358;82;21195;-81
2021/05/28 07:58:18;;;;;;;8.93;5.35;;;;;;;21.84;68.13;99185.98;1719970;81;20992;-78
2021/05/28 08:00:44;;;;;;;11.57;4.92;;;;;;;21.88;66.81;99187.38;1715288;82;20982;-77
2021/05/28 08:03:11;;;;;;;6.67;4.75;;;;;;;21.94;65.94;99187.18;1714662;82;21623;-82
2021/05/28 08:05:40;;;;;;;8.78;4.53;;;;;;;22.03;64.66;99179.19;1721214;82;21092;-78
2021/05/28 08:08:09;;;;;;;12.33;4.55;;;;;;;21.99;63.64;99179.77;1729677;82;21139;-75
2021/05/28 08:10:35;;;;;;;10.15;5.25;;;;;;;21.88;63.90;99179.00;1734966;82;21101;-75
2021/05/28 08:13:03;;;;;;;12.60;7.12;;;;;;;21.88;64.61;99172.02;1735064;82;21686;-77
2021/05/28 08:15:31;;;;;;;11.83;5.72;;;;;;;21.93;64.28;99171.02;1738904;82;21036;-76
2021/05/28 08:17:58;;;;;;;7.00;4.72;;;;;;;21.98;65.95;99168.38;1736792;82;21036;-79
2021/05/28 08:20:25;;;;;;;8.05;4.62;;;;;;;22.02;63.49;99173.40;1740451;81;21719;-77
2021/05/28 08:22:54;;;;;;;9.00;4.50;;;;;;;22.04;62.79;99169.00;1678193;83;21114;-73
2021/05/28 08:25:21;;;;;;;8.93;4.42;;;;;;;22.05;62.40;99174.00;1757117;80;20954;-77
2021/05/28 08:27:49;;;;;;;7.10;5.03;;;;;;;22.11;63.72;99168.20;1745639;80;21100;-77
2021/05/28 08:30:17;;;;;;;8.88;5.08;;;;;;;22.16;64.67;99167.78;1726982;81;21050;-79
2021/05/28 08:32:45;;;;;;;6.62;4.37;;;;;;;22.24;65.74;99158.78;1741416;80;21112;-79
2021/05/28 08:35:11;;;;;;;8.35;4.85;;;;;;;22.35;64.71;99162.35;1733534;81;20989;-78
2021/05/28 08:37:38;;;;;;;9.93;5.58;;;;;;;22.37;64.23;99164.14;1717193;82;21026;-77
2021/05/28 08:40:06;;;;;;;11.65;5.08;;;;;;;22.38;64.22;99158.75;1725225;82;21579;-77
2021/05/28 08:42:32;;;;;;;9.90;5.60;;;;;;;22.44;63.41;99161.93;1731137;81;20981;-77
2021/05/28 08:45:00;;;;;;;11.05;5.78;;;;;;;22.49;64.02;99155.92;1724497;81;21591;-79
2021/05/28 08:47:27;;;;;;;7.40;5.55;;;;;;;22.76;63.60;99156.98;1743136;79;21077;-76
2021/05/28 08:50:00;;;;;;;6.92;5.20;;;;;;;23.13;63.69;99155.59;1679021;83;22408;-75
2021/05/28 08:52:24;;;;;;;7.53;5.33;;;;;;;23.53;60.88;99156.92;1738647;80;20979;-77
2021/05/28 08:54:50;;;;;;;7.62;5.67;;;;;;;23.95;60.34;99151.55;1743976;80;21591;-75
2021/05/28 08:57:22;;;;;;;13.25;5.67;;;;;;;24.04;60.61;99148.45;1763189;79;21514;-76
2021/05/28 08:59:49;;;;;;;8.55;5.55;;;;;;;24.06;60.18;99152.25;1678840;83;21440;-77
2021/05/28 09:02:39;;;;;;;10.90;6.10;;;;;;;24.16;60.78;99151.34;1749140;80;20979;-77
2021/05/28 09:05:17;;;;;;;8.75;5.30;;;;;;;24.44;59.62;99144.62;1731316;81;21688;-75
2021/05/28 09:08:00;;;;;;;11.35;6.08;;;;;;;24.94;59.77;99139.16;1686009;82;20905;-74
2021/05/28 09:10:35;;;;;;;6.83;5.22;;;;;;;25.46;59.27;99139.40;1683328;83;21091;-75
2021/05/28 09:13:21;;;;;;;9.20;5.65;;;;;;;26.05;57.54;99136.78;1686560;83;21088;-76
2021/05/28 09:15:52;;;;;;;6.97;5.12;;;;;;;26.35;52.62;99130.83;1771536;80;21492;-75
2021/05/28 09:18:19;;;;;;;9.48;5.20;;;;;;;26.28;53.97;99139.55;1759271;80;20903;-77
2021/05/28 09:20:48;;;;;;;12.35;5.30;;;;;;;26.08;50.27;99141.55;1736058;81;21027;-74
2021/05/28 09:23:17;;;;;;;6.95;5.55;;;;;;;25.84;51.66;99141.41;1738494;80;21112;-77
2021/05/28 09:26:02;;;;;;;6.17;4.83;;;;;;;25.69;51.39;99129.61;1746137;80;21021;-76
2021/05/28 09:28:29;;;;;;;8.83;4.87;;;;;;;25.46;52.54;99127.55;1748189;80;20906;-78
2021/05/28 09:31:02;;;;;;;12.70;5.67;;;;;;;25.22;53.18;99128.76;1752147;80;21039;-77
2021/05/28 09:33:34;;;;;;;8.05;5.72;;;;;;;24.88;55.04;99119.78;1773939;80;21608;-76
2021/05/28 09:36:14;;;;;;;8.30;5.45;;;;;;;24.60;55.62;99116.77;1738060;81;21631;-79
2021/05/28 09:39:08;;;;;;;7.28;5.08;;;;;;;24.46;55.46;99121.16;1742114;81;21693;-82
2021/05/28 09:41:56;;;;;;;11.33;5.17;;;;;;;24.33;57.34;99123.71;1746174;81;22386;-77
2021/05/28 09:44:28;;;;;;;16.23;6.87;;;;;;;24.24;57.20;99122.62;1744146;81;21619;-76
2021/05/28 09:47:14;;;;;;;8.48;5.45;;;;;;;24.12;58.24;99117.55;1745435;80;21034;-76
2021/05/28 09:49:48;;;;;;;6.47;5.20;;;;;;;24.03;58.62;99118.83;1744753;81;21663;-76
2021/05/28 09:52:24;;;;;;;6.40;5.10;;;;;;;23.82;59.03;99119.04;1759051;80;21584;-76
2021/05/28 09:55:04;;;;;;;10.35;5.55;;;;;;;23.69;60.08;99117.95;1748235;80;20990;-75
2021/05/28 09:57:41;;;;;;;6.00;5.00;;;;;;;23.54;59.64;99120.72;1720854;81;20994;-76
2021/05/28 10:00:11;;;;;;;8.25;5.95;;;;;;;23.42;59.74;99118.38;1748361;80;21073;-77
2021/05/28 10:05:08;;;;;;;9.25;6.00;;;;;;;23.07;60.02;99117.46;1743853;82;21049;-74
2021/05/28 10:07:37;;;;;;;7.83;6.25;;;;;;;22.93;59.72;99113.34;1748815;80;21048;-73
2021/05/28 10:10:05;;;;;;;9.60;6.15;;;;;;;22.87;60.14;99110.78;1764971;80;20934;-74
2021/05/28 10:12:32;;;;;;;10.80;7.58;;;;;;;22.86;60.38;99107.19;1755932;80;21003;-77
2021/05/28 10:14:59;;;;;;;7.90;5.15;;;;;;;22.85;61.08;99103.40;1763304;80;21741;-76
2021/05/28 10:17:26;;;;;;;8.08;6.28;;;;;;;22.83;60.53;99101.61;1748975;80;20970;-77
2021/05/28 10:19:52;;;;;;;7.58;5.60;;;;;;;22.73;61.42;99102.63;1741119;80;21058;-76
2021/05/28 10:22:21;;;;;;;6.83;5.35;;;;;;;22.70;62.72;99099.25;1738524;80;21140;-76
2021/05/28 10:24:48;;;;;;;7.75;6.10;;;;;;;22.73;62.44;99098.44;1721512;82;21026;-74
2021/05/28 10:27:24;;;;;;;10.05;6.00;;;;;;;22.73;63.77;99101.84;1740162;80;21435;-77
2021/05/28 10:29:52;;;;;;;8.75;5.60;;;;;;;22.83;63.30;99098.81;1748353;80;21077;-78
2021/05/28 10:32:19;;;;;;;8.00;5.60;;;;;;;22.97;63.25;99096.73;1735636;80;21020;-77
2021/05/28 10:35:09;;;;;;;10.38;5.22;;;;;;;23.09;61.30;99092.66;1743336;80;21116;-77
2021/05/28 10:37:38;;;;;;;10.58;6.20;;;;;;;23.26;60.93;99086.09;1745267;80;21089;-75
2021/05/28 10:40:29;;;;;;;19.75;7.10;;;;;;;23.65;59.61;99080.80;1764180;80;21518;-72
2021/05/28 10:43:05;;;;;;;8.60;6.35;;;;;;;24.07;59.15;99074.53;1671025;83;21037;-76
2021/05/28 10:46:01;;;;;;;8.90;5.03;;;;;;;24.73;58.15;99074.91;1710653;82;21027;-77
2021/05/28 10:48:43;;;;;;;7.58;5.15;;;;;;;25.20;57.23;99075.02;1755383;80;21104;-76
2021/05/28 10:51:15;;;;;;;5.65;4.95;;;;;;;25.41;55.54;99066.25;1742020;80;20993;-75
2021/05/28 10:53:57;;;;;;;9.00;4.90;;;;;;;25.36;56.33;99075.16;1746530;82;21075;-76
2021/05/28 10:56:30;;;;;;;7.80;5.00;;;;;;;25.33;57.41;99074.00;1733105;81;20997;-75
2021/05/28 10:58:59;;;;;;;11.53;4.97;;;;;;;25.38;56.51;99076.94;1726696;82;21006;-75
2021/05/28 11:01:45;;;;;;;9.55;4.58;;;;;;;25.34;56.34;99069.97;1726472;82;20953;-73
2021/05/28 11:04:13;;;;;;;7.58;4.65;;;;;;;25.32;56.64;99071.61;1748481;81;21041;-77
2021/05/28 11:07:02;;;;;;;5.95;4.25;;;;;;;25.60;56.11;99067.50;1743355;80;21122;-75
2021/05/28 11:09:50;;;;;;;10.78;4.35;;;;;;;25.85;54.77;99055.22;1739738;81;21052;-74
2021/05/28 11:12:23;;;;;;;7.78;4.45;;;;;;;25.89;54.31;99054.55;1744739;80;21117;-75
2021/05/28 11:15:15;;;;;;;6.60;4.10;;;;;;;25.64;53.21;99049.38;1755508;80;21078;-75
2021/05/28 11:18:03;;;;;;;8.15;4.58;;;;;;;25.41;54.02;99043.77;1753086;80;21172;-75
2021/05/28 11:20:37;;;;;;;5.83;4.50;;;;;;;25.13;54.10;99041.43;1753040;78;21086;-75
2021/05/28 11:23:19;;;;;;;4.35;3.95;;;;;;;24.90;55.72;99034.53;1745547;79;21025;-75
2021/05/28 11:25:51;;;;;;;4.70;4.30;;;;;;;24.88;55.39;99034.16;1742600;80;21009;-76
2021/05/28 11:28:19;;;;;;;6.50;4.65;;;;;;;24.79;55.21;99032.52;1738550;80;21005;-77
2021/05/28 11:30:54;;;;;;;8.48;4.55;;;;;;;24.70;56.58;99032.25;1762391;80;21030;-79
2021/05/28 11:33:43;;;;;;;12.58;4.90;;;;;;;24.84;56.67;99026.40;1726805;81;21123;-79
2021/05/28 11:36:33;;;;;;;9.40;4.47;;;;;;;24.95;55.15;99027.64;1726806;81;20921;-79
2021/05/28 11:39:08;;;;;;;7.08;4.47;;;;;;;24.98;55.90;99024.81;1732524;81;21126;-77